Terminal Aerodrome Forecast
Issued by NWS

Home | Current Version | Previous Version | Text Only | Print | Product List | Glossary On
Versions: 1 2 3 4 5 6 7 8 9 10 11 12 13 14 15 16 17 18 19 20 21 22 23 24 25 26 27 28
582
FTUS41 KBUF 261024 AAD
TAFJHW
TAF AMD
KJHW 261024Z 2610/2706 28004KT 3SM BR SCT007
     FM261300 27005KT P6SM SCT015
     FM261800 29007KT P6SM SKC
     FM270000 VRB03KT P6SM SKC
      AMD LTD TO CLD VIS AND WIND=

USA.gov is the U.S. government's official web portal to all federal, state and local government web resources and services.